Fertility, Pennsylvania
Current Conditions -  °F | °C
As of 9:04 AM on Thursday 23 Oct 2014 (Local Time) from KLNS Reporting Station
Overcast Overcast  
Wind Chill: 52°   Ceiling: 2900
Heat Index: 52°   Visibility: 10mi
Dew Point: 42°   Wind: 15mph
Humidity: 69%   Direction: 320°NW
Pressure: 29.85"   Gusts: NA
Location:  40.0158°N, 76.2452°W
Report Text: KLNS 231304Z 32013KT 10SM OVC029 11/06 A2985 RMK AO2 T01110056
Loading
Personal Weather Stations






























Interactive Weather Map
Tropical Storm Tracking
New forecast layout! Learn more

10-Day Weather Forecast

Advertisements
Track Severe Weather on mobile